Weather at Rockton Airport

Public forecast

Using degrees Celsius for public forecast. Weather courtesy of forecast.io.

Closest aviation weather report (METAR) to Rockton Airport

Closest report is Region of Waterloo International Airport, 12.1 nm (22.5 km) NW.

2024/05/26 18:42 (retrieved 21 minutes ago)

CYKF 261842Z AUTO 13011KT 090V160 9SM FEW035 22/14 A2989 RMK PRESFR SLP119 DENSITY ALT 2200FT

Closest aviation forecast (TAF) to Rockton Airport

Closest forecast is Region of Waterloo International Airport, 12.1 nm (22.5 km) NW.

2024/05/26 14:42 (retrieved 4 hours ago)

TAF CYKF 261340Z 2614/2702 04005KT P6SM SKC BECMG 2614/2616 12008KT FM261600 12008KT P6SM FEW020 SCT160 BECMG 2620/2622 10012KT RMK FCST BASED ON AUTO OBS NXT FCST BY 262000Z